VOI1781 KMCO-MMGL
Flight info
| Callsign | VOI1781 |
|---|---|
| Flight time | 3h 25m |
| Altitude | 34000 |
| Route | OSPRY1 REMIS DCT TRESR DCT DAGGR/N0451F360 DCT TBDRK DCT LLARL DCT SBIRN DCT AXEXO DCT XOTUG DCT OTITI DCT TTM J25 SLP UT147 AGU UT44 MEZCA MEZCA1B |
| Aircraft | A320/M-VGD/A |
Departure
| Time | 2026-04-23 22:39 |
|---|---|
| Airport | Orlando International Airport (KMCO) |
Arrival
| Time | 2026-04-24 02:04 |
|---|---|
| Airport | Guadalajara International Airport (MMGL) |
| Time | Latitude | Longitude | Altitude | Speed | Heading |
|---|---|---|---|---|---|
| 2026-04-23 21:34 | 28.42614 | -81.30141 | 103 ft | 0 kts | 58° |
| 2026-04-23 22:13 | 28.42612 | -81.30145 | 103 ft | 2 kts | 58° |
| 2026-04-23 22:13 | 28.42602 | -81.30162 | 101 ft | 3 kts | 52° |
| 2026-04-23 22:13 | 28.42589 | -81.30180 | 102 ft | 3 kts | 47° |
| 2026-04-23 22:13 | 28.42575 | -81.30196 | 101 ft | 3 kts | 41° |
| 2026-04-23 22:14 | 28.42559 | -81.30211 | 103 ft | 3 kts | 34° |
| 2026-04-23 22:14 | 28.42542 | -81.30223 | 103 ft | 3 kts | 25° |
| 2026-04-23 22:14 | 28.42523 | -81.30231 | 102 ft | 3 kts | 6° |
| 2026-04-23 22:14 | 28.42506 | -81.30230 | 102 ft | 3 kts | 320° |
| 2026-04-23 22:15 | 28.42501 | -81.30225 | 102 ft | 0 kts | 297° |
| 2026-04-23 22:17 | 28.42506 | -81.30234 | 102 ft | 4 kts | 297° |
| 2026-04-23 22:18 | 28.42524 | -81.30274 | 103 ft | 7 kts | 297° |
| 2026-04-23 22:18 | 28.42550 | -81.30328 | 103 ft | 9 kts | 298° |
| 2026-04-23 22:18 | 28.42536 | -81.30397 | 101 ft | 11 kts | 218° |
| 2026-04-23 22:18 | 28.42450 | -81.30403 | 101 ft | 14 kts | 178° |
| 2026-04-23 22:19 | 28.42365 | -81.30422 | 101 ft | 13 kts | 224° |
| 2026-04-23 22:19 | 28.42346 | -81.30504 | 106 ft | 9 kts | 266° |
| 2026-04-23 22:19 | 28.42342 | -81.30584 | 106 ft | 11 kts | 266° |
| 2026-04-23 22:19 | 28.42338 | -81.30676 | 106 ft | 12 kts | 266° |
| 2026-04-23 22:20 | 28.42330 | -81.30778 | 105 ft | 14 kts | 265° |
| 2026-04-23 22:20 | 28.42320 | -81.30917 | 101 ft | 19 kts | 265° |
| 2026-04-23 22:20 | 28.42324 | -81.31074 | 100 ft | 21 kts | 281° |
| 2026-04-23 22:20 | 28.42348 | -81.31239 | 100 ft | 22 kts | 276° |
| 2026-04-23 22:21 | 28.42351 | -81.31415 | 101 ft | 23 kts | 270° |
| 2026-04-23 22:21 | 28.42349 | -81.31567 | 102 ft | 11 kts | 269° |
| 2026-04-23 22:21 | 28.42348 | -81.31653 | 104 ft | 11 kts | 270° |
| 2026-04-23 22:21 | 28.42347 | -81.31738 | 105 ft | 11 kts | 269° |
| 2026-04-23 22:22 | 28.42358 | -81.31818 | 107 ft | 10 kts | 311° |
| 2026-04-23 22:22 | 28.42429 | -81.31831 | 106 ft | 12 kts | 359° |
| 2026-04-23 22:22 | 28.42517 | -81.31833 | 106 ft | 13 kts | 359° |
| 2026-04-23 22:22 | 28.42614 | -81.31834 | 107 ft | 14 kts | 359° |
| 2026-04-23 22:23 | 28.42722 | -81.31836 | 106 ft | 17 kts | 359° |
| 2026-04-23 22:23 | 28.42851 | -81.31836 | 103 ft | 20 kts | 0° |
| 2026-04-23 22:23 | 28.43003 | -81.31836 | 102 ft | 23 kts | 359° |
| 2026-04-23 22:23 | 28.43166 | -81.31837 | 102 ft | 24 kts | 0° |
| 2026-04-23 22:24 | 28.43345 | -81.31841 | 101 ft | 27 kts | 358° |
| 2026-04-23 22:24 | 28.43531 | -81.31843 | 105 ft | 27 kts | 0° |
| 2026-04-23 22:24 | 28.43720 | -81.31844 | 105 ft | 28 kts | 360° |
| 2026-04-23 22:24 | 28.43902 | -81.31843 | 108 ft | 21 kts | 359° |
| 2026-04-23 22:25 | 28.44039 | -81.31902 | 110 ft | 21 kts | 340° |
| 2026-04-23 22:25 | 28.44195 | -81.31905 | 107 ft | 24 kts | 0° |
| 2026-04-23 22:25 | 28.44366 | -81.31897 | 107 ft | 26 kts | 3° |
| 2026-04-23 22:25 | 28.44407 | -81.31895 | 106 ft | 0 kts | 1° |
| 2026-04-23 22:26 | 28.44418 | -81.31895 | 106 ft | 3 kts | 1° |
| 2026-04-23 22:26 | 28.44450 | -81.31895 | 105 ft | 6 kts | 357° |
| 2026-04-23 22:26 | 28.44506 | -81.31902 | 104 ft | 10 kts | 355° |
| 2026-04-23 22:26 | 28.44590 | -81.31904 | 102 ft | 14 kts | 359° |
| 2026-04-23 22:27 | 28.44693 | -81.31910 | 101 ft | 16 kts | 342° |
| 2026-04-23 22:27 | 28.44716 | -81.32018 | 101 ft | 16 kts | 269° |
| 2026-04-23 22:27 | 28.44716 | -81.32125 | 102 ft | 0 kts | 270° |
| 2026-04-23 22:28 | 28.44716 | -81.32126 | 102 ft | 1 kts | 270° |
| 2026-04-23 22:28 | 28.44716 | -81.32140 | 102 ft | 3 kts | 270° |
| 2026-04-23 22:28 | 28.44716 | -81.32168 | 102 ft | 4 kts | 270° |
| 2026-04-23 22:28 | 28.44711 | -81.32208 | 103 ft | 6 kts | 245° |
| 2026-04-23 22:29 | 28.44676 | -81.32229 | 103 ft | 6 kts | 185° |
| 2026-04-23 22:29 | 28.44630 | -81.32229 | 104 ft | 4 kts | 180° |
| 2026-04-23 22:37 | 28.44628 | -81.32229 | 104 ft | 2 kts | 180° |
| 2026-04-23 22:38 | 28.44589 | -81.32229 | 104 ft | 0 kts | 180° |
| 2026-04-23 22:38 | 28.44335 | -81.32222 | 107 ft | 79 kts | 178° |
| 2026-04-23 22:38 | 28.43529 | -81.32211 | 103 ft | 148 kts | 179° |
| 2026-04-23 22:38 | 28.42378 | -81.32198 | 568 ft | 171 kts | 174° |
| 2026-04-23 22:39 | 28.41189 | -81.32178 | 1421 ft | 173 kts | 173° |
| 2026-04-23 22:39 | 28.39963 | -81.32250 | 2262 ft | 186 kts | 190° |
| 2026-04-23 22:39 | 28.39605 | -81.32365 | 2407 ft | 192 kts | 195° |
| 2026-04-23 22:39 | 28.38468 | -81.32913 | 2662 ft | 211 kts | 201° |
| 2026-04-23 22:40 | 28.37096 | -81.33686 | 2966 ft | 230 kts | 204° |
| 2026-04-23 22:40 | 28.35631 | -81.34576 | 3463 ft | 244 kts | 210° |
| 2026-04-23 22:40 | 28.33289 | -81.37470 | 5010 ft | 251 kts | 229° |
| 2026-04-23 22:41 | 28.32148 | -81.39039 | 5615 ft | 266 kts | 229° |
| 2026-04-23 22:41 | 28.30945 | -81.40674 | 6371 ft | 273 kts | 229° |
| 2026-04-23 22:41 | 28.29734 | -81.42311 | 7205 ft | 275 kts | 229° |
| 2026-04-23 22:41 | 28.28497 | -81.43976 | 8027 ft | 278 kts | 230° |
| 2026-04-23 22:42 | 28.27247 | -81.45658 | 8825 ft | 281 kts | 230° |
| 2026-04-23 22:42 | 28.25982 | -81.47367 | 9670 ft | 284 kts | 232° |
| 2026-04-23 22:42 | 28.25032 | -81.49313 | 10411 ft | 285 kts | 254° |
| 2026-04-23 22:42 | 28.24809 | -81.51610 | 10664 ft | 306 kts | 276° |
| 2026-04-23 22:43 | 28.25109 | -81.54070 | 10959 ft | 323 kts | 278° |
| 2026-04-23 22:43 | 28.25442 | -81.56613 | 11465 ft | 328 kts | 278° |
| 2026-04-23 22:43 | 28.25775 | -81.59184 | 12167 ft | 332 kts | 278° |
| 2026-04-23 22:43 | 28.26102 | -81.61750 | 12889 ft | 334 kts | 278° |
| 2026-04-23 22:44 | 28.26427 | -81.64361 | 13657 ft | 335 kts | 278° |
| 2026-04-23 22:44 | 28.26747 | -81.66979 | 14343 ft | 335 kts | 278° |
| 2026-04-23 22:44 | 28.27067 | -81.69611 | 14871 ft | 340 kts | 278° |
| 2026-04-23 22:44 | 28.27394 | -81.72277 | 15398 ft | 344 kts | 278° |
| 2026-04-23 22:45 | 28.27725 | -81.74980 | 15945 ft | 347 kts | 278° |
| 2026-04-23 22:45 | 28.28059 | -81.77697 | 16499 ft | 350 kts | 278° |
| 2026-04-23 22:45 | 28.28394 | -81.80439 | 17045 ft | 353 kts | 278° |
| 2026-04-23 22:45 | 28.28734 | -81.83209 | 17591 ft | 356 kts | 277° |
| 2026-04-23 22:46 | 28.29076 | -81.85997 | 18137 ft | 359 kts | 277° |
| 2026-04-23 22:46 | 28.29293 | -81.88817 | 18634 ft | 361 kts | 270° |
| 2026-04-23 22:46 | 28.29047 | -81.91668 | 19121 ft | 364 kts | 259° |
| 2026-04-23 22:46 | 28.28503 | -81.94487 | 19621 ft | 367 kts | 258° |
| 2026-04-23 22:47 | 28.27965 | -81.97281 | 20120 ft | 369 kts | 258° |
| 2026-04-23 22:47 | 28.27419 | -82.00137 | 20614 ft | 371 kts | 258° |
| 2026-04-23 22:47 | 28.26874 | -82.03008 | 21086 ft | 374 kts | 258° |
| 2026-04-23 22:47 | 28.26324 | -82.05899 | 21547 ft | 376 kts | 258° |
| 2026-04-23 22:48 | 28.25769 | -82.08811 | 21998 ft | 379 kts | 258° |
| 2026-04-23 22:48 | 28.25210 | -82.11737 | 22459 ft | 381 kts | 258° |
| 2026-04-23 22:48 | 28.24647 | -82.14683 | 22911 ft | 383 kts | 258° |
| 2026-04-23 22:48 | 28.24080 | -82.17642 | 23351 ft | 385 kts | 258° |
| 2026-04-23 22:49 | 28.23508 | -82.20621 | 23761 ft | 388 kts | 258° |
| 2026-04-23 22:49 | 28.23071 | -82.22895 | 24043 ft | 389 kts | 258° |
| 2026-04-23 22:49 | 28.22506 | -82.25835 | 24187 ft | 373 kts | 258° |
| 2026-04-23 22:49 | 28.21970 | -82.28623 | 24284 ft | 366 kts | 258° |
| 2026-04-23 22:50 | 28.21421 | -82.31490 | 24401 ft | 378 kts | 258° |
| 2026-04-23 22:50 | 28.20858 | -82.34405 | 24542 ft | 387 kts | 258° |
| 2026-04-23 22:50 | 28.20271 | -82.37430 | 24835 ft | 391 kts | 258° |
| 2026-04-23 22:50 | 28.19685 | -82.40449 | 25192 ft | 393 kts | 258° |
| 2026-04-23 22:51 | 28.19097 | -82.43481 | 25569 ft | 394 kts | 258° |
| 2026-04-23 22:51 | 28.18508 | -82.46520 | 25953 ft | 396 kts | 258° |
| 2026-04-23 22:51 | 28.17913 | -82.49574 | 26328 ft | 397 kts | 258° |
| 2026-04-23 22:51 | 28.17317 | -82.52629 | 26695 ft | 398 kts | 257° |
| 2026-04-23 22:52 | 28.16717 | -82.55698 | 27062 ft | 399 kts | 257° |
| 2026-04-23 22:52 | 28.16116 | -82.58781 | 27354 ft | 403 kts | 257° |
| 2026-04-23 22:52 | 28.15510 | -82.61893 | 27677 ft | 405 kts | 257° |
| 2026-04-23 22:52 | 28.14913 | -82.64975 | 28015 ft | 407 kts | 257° |
| 2026-04-23 22:53 | 28.14304 | -82.68104 | 28369 ft | 408 kts | 257° |
| 2026-04-23 22:53 | 28.13686 | -82.71254 | 28731 ft | 410 kts | 257° |
| 2026-04-23 22:53 | 28.13065 | -82.74413 | 29086 ft | 412 kts | 257° |
| 2026-04-23 22:53 | 28.12443 | -82.77581 | 29439 ft | 413 kts | 257° |
| 2026-04-23 22:54 | 28.11816 | -82.80769 | 29812 ft | 414 kts | 257° |
| 2026-04-23 22:54 | 28.11192 | -82.83945 | 30302 ft | 412 kts | 257° |
| 2026-04-23 22:54 | 28.10779 | -82.86039 | 30616 ft | 410 kts | 256° |
| 2026-04-23 22:54 | 28.10159 | -82.89184 | 31084 ft | 407 kts | 256° |
| 2026-04-23 22:55 | 28.09552 | -82.92309 | 31500 ft | 406 kts | 257° |
| 2026-04-23 22:55 | 28.08964 | -82.95423 | 31907 ft | 404 kts | 257° |
| 2026-04-23 22:55 | 28.08195 | -82.99537 | 32050 ft | 402 kts | 257° |
| 2026-04-23 22:56 | 28.07230 | -83.04716 | 32059 ft | 401 kts | 257° |
| 2026-04-23 22:56 | 28.06078 | -83.10845 | 32146 ft | 401 kts | 257° |
| 2026-04-23 22:56 | 28.05493 | -83.13925 | 32554 ft | 400 kts | 257° |
| 2026-04-23 22:57 | 28.04909 | -83.16989 | 33010 ft | 397 kts | 257° |
| 2026-04-23 22:57 | 28.04330 | -83.20032 | 33495 ft | 394 kts | 257° |
| 2026-04-23 22:57 | 28.03756 | -83.23060 | 33933 ft | 393 kts | 257° |
| 2026-04-23 22:57 | 28.03185 | -83.26075 | 34039 ft | 391 kts | 257° |
| 2026-04-23 22:58 | 28.02613 | -83.29080 | 34057 ft | 390 kts | 257° |
| 2026-04-23 22:58 | 28.01466 | -83.35071 | 34057 ft | 389 kts | 256° |
| 2026-04-23 22:59 | 28.00325 | -83.41018 | 34057 ft | 389 kts | 257° |
| 2026-04-23 22:59 | 27.99794 | -83.47119 | 34063 ft | 391 kts | 264° |
| 2026-04-23 23:00 | 27.99450 | -83.53264 | 34062 ft | 391 kts | 264° |
| 2026-04-23 23:00 | 27.99101 | -83.59401 | 34065 ft | 391 kts | 264° |
| 2026-04-23 23:01 | 27.98742 | -83.65503 | 34065 ft | 391 kts | 264° |
| 2026-04-23 23:01 | 27.98375 | -83.71646 | 34062 ft | 391 kts | 264° |
| 2026-04-23 23:02 | 27.98012 | -83.77789 | 34062 ft | 391 kts | 264° |
| 2026-04-23 23:02 | 27.97643 | -83.83936 | 34062 ft | 391 kts | 264° |
| 2026-04-23 23:03 | 27.97277 | -83.90079 | 34059 ft | 392 kts | 264° |
| 2026-04-23 23:03 | 27.96901 | -83.96239 | 34062 ft | 393 kts | 264° |
| 2026-04-23 23:04 | 27.96529 | -84.02418 | 34069 ft | 394 kts | 264° |
| 2026-04-23 23:04 | 27.96153 | -84.08554 | 34065 ft | 394 kts | 263° |
| 2026-04-23 23:05 | 27.95763 | -84.14735 | 34062 ft | 394 kts | 263° |
| 2026-04-23 23:05 | 27.95374 | -84.20914 | 34062 ft | 394 kts | 263° |
| 2026-04-23 23:06 | 27.94981 | -84.27098 | 34056 ft | 394 kts | 263° |
| 2026-04-23 23:06 | 27.94591 | -84.33275 | 34056 ft | 394 kts | 264° |
| 2026-04-23 23:07 | 27.94205 | -84.39422 | 34059 ft | 394 kts | 264° |
| 2026-04-23 23:07 | 27.93808 | -84.45607 | 34058 ft | 394 kts | 264° |
| 2026-04-23 23:08 | 27.93408 | -84.51788 | 34054 ft | 394 kts | 264° |
| 2026-04-23 23:08 | 27.93006 | -84.57974 | 34056 ft | 394 kts | 263° |
| 2026-04-23 23:09 | 27.92602 | -84.64113 | 34056 ft | 394 kts | 263° |
| 2026-04-23 23:09 | 27.92194 | -84.70297 | 34054 ft | 395 kts | 263° |
| 2026-04-23 23:10 | 27.91780 | -84.76492 | 34055 ft | 395 kts | 263° |
| 2026-04-23 23:10 | 27.91364 | -84.82688 | 34057 ft | 395 kts | 263° |
| 2026-04-23 23:11 | 27.90950 | -84.88884 | 34059 ft | 395 kts | 263° |
| 2026-04-23 23:11 | 27.90530 | -84.95081 | 34057 ft | 395 kts | 263° |
| 2026-04-23 23:12 | 27.90109 | -85.01231 | 34056 ft | 395 kts | 263° |
| 2026-04-23 23:12 | 27.89686 | -85.07425 | 34054 ft | 395 kts | 263° |
| 2026-04-23 23:13 | 27.89259 | -85.13607 | 34053 ft | 394 kts | 263° |
| 2026-04-23 23:13 | 27.88826 | -85.19789 | 34053 ft | 395 kts | 263° |
| 2026-04-23 23:14 | 27.88356 | -85.25927 | 34048 ft | 393 kts | 259° |
| 2026-04-23 23:14 | 27.87265 | -85.31972 | 34048 ft | 393 kts | 256° |
| 2026-04-23 23:15 | 27.86157 | -85.38021 | 34048 ft | 393 kts | 256° |
| 2026-04-23 23:15 | 27.85048 | -85.44061 | 34049 ft | 393 kts | 257° |
| 2026-04-23 23:16 | 27.83930 | -85.50108 | 34047 ft | 393 kts | 257° |
| 2026-04-23 23:16 | 27.82802 | -85.56153 | 34046 ft | 394 kts | 257° |
| 2026-04-23 23:17 | 27.81674 | -85.62206 | 34046 ft | 394 kts | 257° |
| 2026-04-23 23:17 | 27.80546 | -85.68218 | 34046 ft | 394 kts | 257° |
| 2026-04-23 23:18 | 27.79409 | -85.74273 | 34037 ft | 394 kts | 257° |
| 2026-04-23 23:18 | 27.78272 | -85.80327 | 34041 ft | 394 kts | 257° |
| 2026-04-23 23:19 | 27.77142 | -85.86383 | 34043 ft | 394 kts | 257° |
| 2026-04-23 23:19 | 27.76004 | -85.92443 | 34038 ft | 394 kts | 257° |
| 2026-04-23 23:20 | 27.74863 | -85.98460 | 34038 ft | 395 kts | 257° |
| 2026-04-23 23:20 | 27.73718 | -86.04517 | 34038 ft | 395 kts | 257° |
| 2026-04-23 23:21 | 27.72561 | -86.10574 | 34038 ft | 395 kts | 257° |
| 2026-04-23 23:21 | 27.71408 | -86.16634 | 34038 ft | 395 kts | 257° |
| 2026-04-23 23:22 | 27.70241 | -86.22749 | 34036 ft | 404 kts | 258° |
| 2026-04-23 23:22 | 27.69060 | -86.28935 | 34034 ft | 407 kts | 258° |
| 2026-04-23 23:23 | 27.67865 | -86.35176 | 34032 ft | 407 kts | 258° |
| 2026-04-23 23:23 | 27.66667 | -86.41422 | 34032 ft | 407 kts | 258° |
| 2026-04-23 23:24 | 27.65468 | -86.47667 | 34033 ft | 408 kts | 258° |
| 2026-04-23 23:24 | 27.64258 | -86.53917 | 34032 ft | 408 kts | 258° |
| 2026-04-23 23:25 | 27.63040 | -86.60186 | 34029 ft | 413 kts | 259° |
| 2026-04-23 23:25 | 27.61810 | -86.66510 | 34030 ft | 417 kts | 259° |
| 2026-04-23 23:26 | 27.60563 | -86.72896 | 34028 ft | 417 kts | 259° |
| 2026-04-23 23:26 | 27.59320 | -86.79282 | 34030 ft | 417 kts | 259° |
| 2026-04-23 23:27 | 27.58073 | -86.85669 | 34032 ft | 417 kts | 259° |
| 2026-04-23 23:27 | 27.56812 | -86.92053 | 34029 ft | 417 kts | 259° |
| 2026-04-23 23:28 | 27.55559 | -86.98408 | 34027 ft | 420 kts | 260° |
| 2026-04-23 23:28 | 27.54299 | -87.04845 | 34024 ft | 421 kts | 260° |
| 2026-04-23 23:29 | 27.53026 | -87.11283 | 34023 ft | 421 kts | 260° |
| 2026-04-23 23:29 | 27.51747 | -87.17721 | 34023 ft | 421 kts | 259° |
| 2026-04-23 23:30 | 27.50464 | -87.24167 | 34023 ft | 421 kts | 259° |
| 2026-04-23 23:30 | 27.49190 | -87.30565 | 34020 ft | 421 kts | 259° |
| 2026-04-23 23:31 | 27.47909 | -87.37007 | 34014 ft | 422 kts | 260° |
| 2026-04-23 23:31 | 27.46616 | -87.43468 | 34022 ft | 423 kts | 260° |
| 2026-04-23 23:32 | 27.45308 | -87.49921 | 34019 ft | 423 kts | 260° |
| 2026-04-23 23:32 | 27.44014 | -87.56351 | 34008 ft | 420 kts | 260° |
| 2026-04-23 23:33 | 27.42726 | -87.62717 | 34016 ft | 420 kts | 260° |
| 2026-04-23 23:33 | 27.41436 | -87.69118 | 34015 ft | 419 kts | 260° |
| 2026-04-23 23:34 | 27.40144 | -87.75521 | 34012 ft | 420 kts | 261° |
| 2026-04-23 23:34 | 27.38838 | -87.81918 | 34010 ft | 420 kts | 261° |
| 2026-04-23 23:35 | 27.37540 | -87.88276 | 34007 ft | 420 kts | 261° |
| 2026-04-23 23:35 | 27.36232 | -87.94671 | 34008 ft | 420 kts | 261° |
| 2026-04-23 23:36 | 27.34924 | -88.01069 | 34007 ft | 420 kts | 261° |
| 2026-04-23 23:36 | 27.33606 | -88.07463 | 33998 ft | 420 kts | 261° |
| 2026-04-23 23:37 | 27.32291 | -88.13855 | 34003 ft | 419 kts | 261° |
| 2026-04-23 23:37 | 27.30984 | -88.20194 | 33999 ft | 419 kts | 261° |
| 2026-04-23 23:38 | 27.29666 | -88.26572 | 34000 ft | 419 kts | 261° |
| 2026-04-23 23:38 | 27.28362 | -88.32951 | 33997 ft | 418 kts | 262° |
| 2026-04-23 23:39 | 27.27150 | -88.39347 | 33994 ft | 418 kts | 262° |
| 2026-04-23 23:39 | 27.25968 | -88.45702 | 33997 ft | 418 kts | 262° |
| 2026-04-23 23:40 | 27.24764 | -88.52089 | 33993 ft | 418 kts | 263° |
| 2026-04-23 23:40 | 27.23537 | -88.58469 | 33993 ft | 418 kts | 263° |
| 2026-04-23 23:41 | 27.22305 | -88.64849 | 33991 ft | 418 kts | 263° |
| 2026-04-23 23:41 | 27.21074 | -88.71225 | 33991 ft | 418 kts | 263° |
| 2026-04-23 23:42 | 27.19836 | -88.77610 | 33992 ft | 418 kts | 263° |
| 2026-04-23 23:42 | 27.18607 | -88.83946 | 33987 ft | 418 kts | 263° |
| 2026-04-23 23:43 | 27.17363 | -88.90326 | 33986 ft | 418 kts | 263° |
| 2026-04-23 23:43 | 27.16122 | -88.96696 | 33986 ft | 417 kts | 263° |
| 2026-04-23 23:44 | 27.14890 | -89.03046 | 33986 ft | 416 kts | 263° |
| 2026-04-23 23:44 | 27.13653 | -89.09354 | 33986 ft | 417 kts | 263° |
| 2026-04-23 23:45 | 27.12402 | -89.15704 | 33983 ft | 417 kts | 263° |
| 2026-04-23 23:45 | 27.11158 | -89.22051 | 33983 ft | 417 kts | 263° |
| 2026-04-23 23:46 | 27.09441 | -89.28313 | 33979 ft | 421 kts | 257° |
| 2026-04-23 23:46 | 27.07552 | -89.34535 | 33988 ft | 421 kts | 257° |
| 2026-04-23 23:47 | 27.05680 | -89.40716 | 33969 ft | 421 kts | 257° |
| 2026-04-23 23:47 | 27.03785 | -89.46934 | 33971 ft | 421 kts | 257° |
| 2026-04-23 23:48 | 27.01888 | -89.53151 | 33978 ft | 421 kts | 257° |
| 2026-04-23 23:48 | 26.99984 | -89.59365 | 33976 ft | 421 kts | 257° |
| 2026-04-23 23:49 | 26.97140 | -89.68641 | 33981 ft | 421 kts | 257° |
| 2026-04-23 23:49 | 26.95238 | -89.74852 | 33972 ft | 421 kts | 257° |
| 2026-04-23 23:50 | 26.93327 | -89.81061 | 33976 ft | 422 kts | 257° |
| 2026-04-23 23:50 | 26.91417 | -89.87268 | 33981 ft | 422 kts | 257° |
| 2026-04-23 23:51 | 26.89502 | -89.93486 | 33964 ft | 422 kts | 257° |
| 2026-04-23 23:51 | 26.87582 | -89.99692 | 33966 ft | 422 kts | 257° |
| 2026-04-23 23:52 | 26.85682 | -90.05826 | 33973 ft | 418 kts | 257° |
| 2026-04-23 23:52 | 26.83778 | -90.11973 | 33972 ft | 418 kts | 257° |
| 2026-04-23 23:53 | 26.81868 | -90.18115 | 33970 ft | 418 kts | 257° |
| 2026-04-23 23:53 | 26.79950 | -90.24254 | 33969 ft | 418 kts | 257° |
| 2026-04-23 23:54 | 26.78036 | -90.30392 | 33971 ft | 418 kts | 257° |
| 2026-04-23 23:54 | 26.76132 | -90.36487 | 33966 ft | 418 kts | 257° |
| 2026-04-23 23:55 | 26.74216 | -90.42613 | 33966 ft | 416 kts | 258° |
| 2026-04-23 23:55 | 26.72311 | -90.48713 | 33967 ft | 415 kts | 258° |
| 2026-04-23 23:56 | 26.70404 | -90.54808 | 33967 ft | 415 kts | 258° |
| 2026-04-23 23:56 | 26.68492 | -90.60857 | 33966 ft | 415 kts | 257° |
| 2026-04-23 23:57 | 26.66572 | -90.66949 | 33961 ft | 415 kts | 258° |
| 2026-04-23 23:57 | 26.64607 | -90.73026 | 33962 ft | 416 kts | 257° |
| 2026-04-23 23:58 | 26.62590 | -90.79087 | 33959 ft | 416 kts | 257° |
| 2026-04-23 23:58 | 26.60572 | -90.85146 | 33959 ft | 416 kts | 257° |
| 2026-04-23 23:59 | 26.58563 | -90.91202 | 33959 ft | 416 kts | 257° |
| 2026-04-23 23:59 | 26.56569 | -90.97217 | 33959 ft | 416 kts | 257° |
| 2026-04-24 00:00 | 26.54566 | -91.03274 | 33961 ft | 416 kts | 257° |
| 2026-04-24 00:00 | 26.52558 | -91.09341 | 33958 ft | 416 kts | 257° |
| 2026-04-24 00:01 | 26.50545 | -91.15402 | 33934 ft | 417 kts | 257° |
| 2026-04-24 00:01 | 26.48510 | -91.21478 | 33956 ft | 418 kts | 257° |
| 2026-04-24 00:02 | 26.46476 | -91.27559 | 33953 ft | 418 kts | 257° |
| 2026-04-24 00:02 | 26.44450 | -91.33602 | 33952 ft | 418 kts | 257° |
| 2026-04-24 00:03 | 26.42414 | -91.39681 | 33950 ft | 418 kts | 257° |
| 2026-04-24 00:03 | 26.40370 | -91.45757 | 33951 ft | 418 kts | 257° |
| 2026-04-24 00:04 | 26.38328 | -91.51831 | 33951 ft | 418 kts | 257° |
| 2026-04-24 00:04 | 26.36281 | -91.57911 | 33947 ft | 420 kts | 257° |
| 2026-04-24 00:05 | 26.34240 | -91.63966 | 33945 ft | 420 kts | 257° |
| 2026-04-24 00:05 | 26.32195 | -91.70058 | 33945 ft | 419 kts | 258° |
| 2026-04-24 00:06 | 26.30211 | -91.76169 | 33947 ft | 419 kts | 258° |
| 2026-04-24 00:06 | 26.28246 | -91.82276 | 33947 ft | 419 kts | 258° |
| 2026-04-24 00:07 | 26.26260 | -91.88382 | 33942 ft | 419 kts | 258° |
| 2026-04-24 00:07 | 26.24285 | -91.94439 | 33927 ft | 419 kts | 258° |
| 2026-04-24 00:08 | 26.22285 | -92.00557 | 33939 ft | 421 kts | 258° |
| 2026-04-24 00:08 | 26.20275 | -92.06686 | 33940 ft | 421 kts | 258° |
| 2026-04-24 00:09 | 26.18259 | -92.12813 | 33939 ft | 421 kts | 258° |
| 2026-04-24 00:09 | 26.16241 | -92.18937 | 33934 ft | 422 kts | 258° |
| 2026-04-24 00:10 | 26.14239 | -92.25027 | 33934 ft | 421 kts | 258° |
| 2026-04-24 00:10 | 26.12222 | -92.31144 | 33925 ft | 421 kts | 258° |
| 2026-04-24 00:11 | 26.10202 | -92.37259 | 33932 ft | 421 kts | 258° |
| 2026-04-24 00:11 | 26.08180 | -92.43363 | 33931 ft | 421 kts | 258° |
| 2026-04-24 00:12 | 26.06154 | -92.49472 | 33926 ft | 421 kts | 258° |
| 2026-04-24 00:12 | 26.04146 | -92.55534 | 33926 ft | 421 kts | 258° |
| 2026-04-24 00:13 | 26.02120 | -92.61635 | 33925 ft | 421 kts | 258° |
| 2026-04-24 00:13 | 26.00082 | -92.67740 | 33904 ft | 421 kts | 258° |
| 2026-04-24 00:14 | 25.98039 | -92.73854 | 33921 ft | 423 kts | 258° |
| 2026-04-24 00:14 | 25.96009 | -92.79939 | 33921 ft | 423 kts | 258° |
| 2026-04-24 00:15 | 25.93953 | -92.86066 | 33921 ft | 423 kts | 258° |
| 2026-04-24 00:15 | 25.91892 | -92.92188 | 33901 ft | 423 kts | 258° |
| 2026-04-24 00:16 | 25.89831 | -92.98317 | 33922 ft | 424 kts | 258° |
| 2026-04-24 00:16 | 25.87788 | -93.04420 | 33918 ft | 424 kts | 258° |
| 2026-04-24 00:17 | 25.85726 | -93.10564 | 33910 ft | 425 kts | 258° |
| 2026-04-24 00:17 | 25.83654 | -93.16704 | 33919 ft | 425 kts | 258° |
| 2026-04-24 00:18 | 25.81574 | -93.22844 | 33909 ft | 425 kts | 258° |
| 2026-04-24 00:18 | 25.79511 | -93.28941 | 33916 ft | 425 kts | 258° |
| 2026-04-24 00:19 | 25.77435 | -93.35079 | 33917 ft | 425 kts | 258° |
| 2026-04-24 00:19 | 25.75346 | -93.41212 | 33908 ft | 425 kts | 258° |
| 2026-04-24 00:20 | 25.73249 | -93.47344 | 33898 ft | 425 kts | 258° |
| 2026-04-24 00:20 | 25.71171 | -93.53435 | 33909 ft | 425 kts | 258° |
| 2026-04-24 00:21 | 25.69081 | -93.59566 | 33909 ft | 425 kts | 258° |
| 2026-04-24 00:21 | 25.66991 | -93.65697 | 33891 ft | 425 kts | 258° |
| 2026-04-24 00:22 | 25.64829 | -93.71806 | 33904 ft | 427 kts | 256° |
| 2026-04-24 00:22 | 25.62574 | -93.77847 | 33905 ft | 427 kts | 256° |
| 2026-04-24 00:23 | 25.60297 | -93.83922 | 33902 ft | 426 kts | 256° |
| 2026-04-24 00:23 | 25.58050 | -93.89986 | 33898 ft | 426 kts | 256° |
| 2026-04-24 00:24 | 25.55807 | -93.96074 | 33901 ft | 427 kts | 256° |
| 2026-04-24 00:24 | 25.53567 | -94.02123 | 33898 ft | 427 kts | 256° |
| 2026-04-24 00:25 | 25.51302 | -94.08209 | 33898 ft | 428 kts | 256° |
| 2026-04-24 00:25 | 25.49038 | -94.14298 | 33898 ft | 427 kts | 256° |
| 2026-04-24 00:26 | 25.46778 | -94.20382 | 33881 ft | 427 kts | 256° |
| 2026-04-24 00:26 | 25.44526 | -94.26418 | 33892 ft | 427 kts | 256° |
| 2026-04-24 00:27 | 25.42262 | -94.32486 | 33891 ft | 427 kts | 256° |
| 2026-04-24 00:27 | 25.39987 | -94.38553 | 33890 ft | 427 kts | 256° |
| 2026-04-24 00:28 | 25.37711 | -94.44620 | 33890 ft | 427 kts | 256° |
| 2026-04-24 00:28 | 25.35457 | -94.50643 | 33890 ft | 427 kts | 256° |
| 2026-04-24 00:29 | 25.33180 | -94.56706 | 33890 ft | 427 kts | 256° |
| 2026-04-24 00:29 | 25.30863 | -94.62753 | 33888 ft | 428 kts | 254° |
| 2026-04-24 00:30 | 25.28437 | -94.68769 | 33887 ft | 429 kts | 253° |
| 2026-04-24 00:30 | 25.25983 | -94.74774 | 33884 ft | 429 kts | 254° |
| 2026-04-24 00:31 | 25.23568 | -94.80749 | 33885 ft | 429 kts | 254° |
| 2026-04-24 00:31 | 25.21144 | -94.86773 | 33885 ft | 429 kts | 254° |
| 2026-04-24 00:32 | 25.18714 | -94.92792 | 33879 ft | 429 kts | 253° |
| 2026-04-24 00:32 | 25.16276 | -94.98812 | 33879 ft | 429 kts | 253° |
| 2026-04-24 00:33 | 25.13868 | -95.04787 | 33879 ft | 429 kts | 253° |
| 2026-04-24 00:33 | 25.11438 | -95.10801 | 33879 ft | 429 kts | 253° |
| 2026-04-24 00:34 | 25.09001 | -95.16807 | 33879 ft | 429 kts | 253° |
| 2026-04-24 00:34 | 25.06558 | -95.22813 | 33876 ft | 429 kts | 253° |
| 2026-04-24 00:35 | 25.04130 | -95.28779 | 33874 ft | 429 kts | 253° |
| 2026-04-24 00:35 | 25.01691 | -95.34785 | 33865 ft | 428 kts | 253° |
| 2026-04-24 00:36 | 24.99252 | -95.40767 | 33870 ft | 428 kts | 253° |
| 2026-04-24 00:36 | 24.96802 | -95.46735 | 33881 ft | 427 kts | 253° |
| 2026-04-24 00:37 | 24.94354 | -95.52705 | 33867 ft | 427 kts | 253° |
| 2026-04-24 00:37 | 24.91935 | -95.58637 | 33872 ft | 427 kts | 253° |
| 2026-04-24 00:38 | 24.89488 | -95.64602 | 33868 ft | 428 kts | 253° |
| 2026-04-24 00:38 | 24.87033 | -95.70575 | 33867 ft | 428 kts | 253° |
| 2026-04-24 00:39 | 24.84575 | -95.76543 | 33868 ft | 428 kts | 253° |
| 2026-04-24 00:39 | 24.82120 | -95.82505 | 33866 ft | 428 kts | 252° |
| 2026-04-24 00:40 | 24.79670 | -95.88419 | 33865 ft | 428 kts | 252° |
| 2026-04-24 00:40 | 24.77213 | -95.94377 | 33863 ft | 428 kts | 252° |
| 2026-04-24 00:41 | 24.74754 | -96.00336 | 33863 ft | 427 kts | 252° |
| 2026-04-24 00:41 | 24.72297 | -96.06288 | 33862 ft | 427 kts | 252° |
| 2026-04-24 00:42 | 24.69845 | -96.12194 | 33862 ft | 427 kts | 252° |
| 2026-04-24 00:42 | 24.67377 | -96.18123 | 33863 ft | 426 kts | 252° |
| 2026-04-24 00:43 | 24.64895 | -96.24046 | 33857 ft | 427 kts | 251° |
| 2026-04-24 00:43 | 24.62301 | -96.29923 | 33854 ft | 428 kts | 251° |
| 2026-04-24 00:44 | 24.59667 | -96.35783 | 33854 ft | 428 kts | 251° |
| 2026-04-24 00:44 | 24.57047 | -96.41648 | 33852 ft | 428 kts | 251° |
| 2026-04-24 00:45 | 24.54462 | -96.47479 | 33841 ft | 427 kts | 251° |
| 2026-04-24 00:45 | 24.51859 | -96.53343 | 33853 ft | 427 kts | 251° |
| 2026-04-24 00:46 | 24.49251 | -96.59201 | 33845 ft | 427 kts | 251° |
| 2026-04-24 00:46 | 24.46642 | -96.65058 | 33847 ft | 427 kts | 251° |
| 2026-04-24 00:47 | 24.44050 | -96.70869 | 33844 ft | 427 kts | 251° |
| 2026-04-24 00:47 | 24.41439 | -96.76722 | 33842 ft | 427 kts | 251° |
| 2026-04-24 00:48 | 24.38827 | -96.82567 | 33850 ft | 427 kts | 250° |
| 2026-04-24 00:48 | 24.36208 | -96.88406 | 33845 ft | 426 kts | 250° |
| 2026-04-24 00:49 | 24.33609 | -96.94191 | 33844 ft | 425 kts | 250° |
| 2026-04-24 00:49 | 24.30995 | -97.00011 | 33834 ft | 425 kts | 250° |
| 2026-04-24 00:50 | 24.28380 | -97.05829 | 33842 ft | 426 kts | 250° |
| 2026-04-24 00:50 | 24.25756 | -97.11645 | 33832 ft | 426 kts | 250° |
| 2026-04-24 00:51 | 24.23135 | -97.17457 | 33834 ft | 426 kts | 250° |
| 2026-04-24 00:51 | 24.20519 | -97.23234 | 33832 ft | 427 kts | 250° |
| 2026-04-24 00:52 | 24.17879 | -97.29062 | 33837 ft | 427 kts | 250° |
| 2026-04-24 00:52 | 24.15244 | -97.34899 | 33833 ft | 428 kts | 250° |
| 2026-04-24 00:53 | 24.12601 | -97.40732 | 33835 ft | 428 kts | 250° |
| 2026-04-24 00:53 | 24.09954 | -97.46561 | 33837 ft | 428 kts | 250° |
| 2026-04-24 00:54 | 24.07326 | -97.52353 | 33834 ft | 428 kts | 250° |
| 2026-04-24 00:54 | 24.04682 | -97.58180 | 33835 ft | 428 kts | 250° |
| 2026-04-24 00:55 | 24.02046 | -97.63995 | 33835 ft | 426 kts | 250° |
| 2026-04-24 00:55 | 23.99852 | -97.68807 | 33835 ft | 425 kts | 250° |
| 2026-04-24 00:56 | 23.96773 | -97.75535 | 33829 ft | 426 kts | 250° |
| 2026-04-24 00:56 | 23.94130 | -97.81320 | 33830 ft | 426 kts | 249° |
| 2026-04-24 00:57 | 23.91909 | -97.86167 | 33829 ft | 425 kts | 249° |
| 2026-04-24 00:58 | 23.87955 | -97.94801 | 33828 ft | 425 kts | 249° |
| 2026-04-24 00:58 | 23.85299 | -98.00582 | 33823 ft | 427 kts | 249° |
| 2026-04-24 00:59 | 23.82634 | -98.06385 | 33824 ft | 428 kts | 249° |
| 2026-04-24 00:59 | 23.79982 | -98.12154 | 33822 ft | 428 kts | 249° |
| 2026-04-24 01:00 | 23.77307 | -98.17960 | 33825 ft | 428 kts | 249° |
| 2026-04-24 01:00 | 23.74628 | -98.23764 | 33828 ft | 428 kts | 249° |
| 2026-04-24 01:01 | 23.71950 | -98.29566 | 33825 ft | 428 kts | 249° |
| 2026-04-24 01:01 | 23.69268 | -98.35364 | 33811 ft | 428 kts | 249° |
| 2026-04-24 01:02 | 23.66598 | -98.41122 | 33820 ft | 428 kts | 249° |
| 2026-04-24 01:02 | 23.63454 | -98.47898 | 33826 ft | 428 kts | 249° |
| 2026-04-24 01:03 | 23.61219 | -98.52709 | 33813 ft | 428 kts | 249° |
| 2026-04-24 01:03 | 23.58526 | -98.58507 | 33813 ft | 428 kts | 249° |
| 2026-04-24 01:04 | 23.55838 | -98.64298 | 33804 ft | 428 kts | 249° |
| 2026-04-24 01:04 | 23.53158 | -98.70045 | 33802 ft | 428 kts | 249° |
| 2026-04-24 01:05 | 23.50458 | -98.75834 | 33802 ft | 429 kts | 249° |
| 2026-04-24 01:05 | 23.47746 | -98.81652 | 33799 ft | 432 kts | 248° |
| 2026-04-24 01:06 | 23.45016 | -98.87482 | 33807 ft | 432 kts | 248° |
| 2026-04-24 01:06 | 23.42282 | -98.93308 | 33806 ft | 432 kts | 248° |
| 2026-04-24 01:07 | 23.39568 | -98.99097 | 33815 ft | 432 kts | 248° |
| 2026-04-24 01:07 | 23.36841 | -99.04933 | 33818 ft | 432 kts | 248° |
| 2026-04-24 01:08 | 23.34102 | -99.10759 | 33841 ft | 433 kts | 247° |
| 2026-04-24 01:08 | 23.31100 | -99.16472 | 33843 ft | 437 kts | 244° |
| 2026-04-24 01:09 | 23.27868 | -99.22070 | 33847 ft | 437 kts | 243° |
| 2026-04-24 01:09 | 23.24665 | -99.27634 | 33876 ft | 437 kts | 244° |
| 2026-04-24 01:10 | 23.21503 | -99.33268 | 33867 ft | 436 kts | 244° |
| 2026-04-24 01:10 | 23.18357 | -99.38915 | 33881 ft | 437 kts | 244° |
| 2026-04-24 01:11 | 23.15208 | -99.44554 | 33878 ft | 437 kts | 244° |
| 2026-04-24 01:11 | 23.12068 | -99.50153 | 33882 ft | 436 kts | 243° |
| 2026-04-24 01:12 | 23.08903 | -99.55763 | 33881 ft | 435 kts | 243° |
| 2026-04-24 01:12 | 23.05741 | -99.61367 | 33869 ft | 436 kts | 243° |
| 2026-04-24 01:13 | 23.02582 | -99.66984 | 33866 ft | 436 kts | 243° |
| 2026-04-24 01:13 | 22.99435 | -99.72562 | 33855 ft | 436 kts | 243° |
| 2026-04-24 01:14 | 22.96263 | -99.78166 | 33854 ft | 436 kts | 243° |
| 2026-04-24 01:14 | 22.92953 | -99.83698 | 33834 ft | 437 kts | 241° |
| 2026-04-24 01:15 | 22.89567 | -99.89160 | 33827 ft | 436 kts | 240° |
| 2026-04-24 01:15 | 22.86198 | -99.94618 | 33832 ft | 435 kts | 241° |
| 2026-04-24 01:16 | 22.82855 | -100.00093 | 33822 ft | 435 kts | 241° |
| 2026-04-24 01:16 | 22.79547 | -100.05535 | 33823 ft | 435 kts | 241° |
| 2026-04-24 01:17 | 22.76211 | -100.11014 | 33820 ft | 436 kts | 241° |
| 2026-04-24 01:17 | 22.72862 | -100.16488 | 33806 ft | 436 kts | 241° |
| 2026-04-24 01:18 | 22.69500 | -100.21951 | 33815 ft | 435 kts | 241° |
| 2026-04-24 01:18 | 22.66184 | -100.27348 | 33812 ft | 432 kts | 241° |
| 2026-04-24 01:19 | 22.62859 | -100.32769 | 33799 ft | 432 kts | 241° |
| 2026-04-24 01:19 | 22.59538 | -100.38184 | 33801 ft | 432 kts | 241° |
| 2026-04-24 01:20 | 22.56219 | -100.43589 | 33783 ft | 432 kts | 241° |
| 2026-04-24 01:20 | 22.52888 | -100.48999 | 33784 ft | 432 kts | 241° |
| 2026-04-24 01:21 | 22.49556 | -100.54401 | 33786 ft | 432 kts | 241° |
| 2026-04-24 01:21 | 22.46248 | -100.59766 | 33772 ft | 431 kts | 241° |
| 2026-04-24 01:22 | 22.42933 | -100.65140 | 33833 ft | 429 kts | 241° |
| 2026-04-24 01:22 | 22.39615 | -100.70517 | 33906 ft | 430 kts | 241° |
| 2026-04-24 01:23 | 22.36289 | -100.75890 | 33980 ft | 430 kts | 241° |
| 2026-04-24 01:23 | 22.32978 | -100.81218 | 34065 ft | 430 kts | 241° |
| 2026-04-24 01:24 | 22.29640 | -100.86589 | 34118 ft | 430 kts | 241° |
| 2026-04-24 01:24 | 22.26318 | -100.91964 | 34120 ft | 429 kts | 243° |
| 2026-04-24 01:25 | 22.23849 | -100.97743 | 34135 ft | 424 kts | 251° |
| 2026-04-24 01:25 | 22.21570 | -101.03615 | 34101 ft | 424 kts | 251° |
| 2026-04-24 01:26 | 22.19298 | -101.09437 | 34032 ft | 424 kts | 251° |
| 2026-04-24 01:26 | 22.17016 | -101.15306 | 33963 ft | 424 kts | 251° |
| 2026-04-24 01:27 | 22.14732 | -101.21174 | 33887 ft | 424 kts | 251° |
| 2026-04-24 01:27 | 22.12449 | -101.27040 | 33792 ft | 424 kts | 251° |
| 2026-04-24 01:28 | 22.10186 | -101.32864 | 33802 ft | 424 kts | 251° |
| 2026-04-24 01:28 | 22.09045 | -101.35796 | 33977 ft | 425 kts | 251° |
| 2026-04-24 01:28 | 22.07901 | -101.38725 | 34401 ft | 423 kts | 251° |
| 2026-04-24 01:28 | 22.06758 | -101.41648 | 34791 ft | 422 kts | 251° |
| 2026-04-24 01:29 | 22.05617 | -101.44564 | 35152 ft | 422 kts | 251° |
| 2026-04-24 01:29 | 22.04479 | -101.47472 | 35489 ft | 422 kts | 251° |
| 2026-04-24 01:29 | 22.03336 | -101.50392 | 35748 ft | 422 kts | 251° |
| 2026-04-24 01:30 | 22.01055 | -101.56214 | 35813 ft | 421 kts | 251° |
| 2026-04-24 01:30 | 21.98785 | -101.61990 | 35813 ft | 421 kts | 251° |
| 2026-04-24 01:31 | 21.96590 | -101.67573 | 35811 ft | 421 kts | 251° |
| 2026-04-24 01:31 | 21.94300 | -101.73380 | 35810 ft | 420 kts | 251° |
| 2026-04-24 01:32 | 21.92012 | -101.79169 | 35809 ft | 420 kts | 251° |
| 2026-04-24 01:32 | 21.89737 | -101.84921 | 35809 ft | 420 kts | 251° |
| 2026-04-24 01:33 | 21.87462 | -101.90717 | 35803 ft | 420 kts | 251° |
| 2026-04-24 01:33 | 21.85181 | -101.96507 | 35803 ft | 420 kts | 251° |
| 2026-04-24 01:34 | 21.82890 | -102.02296 | 35802 ft | 420 kts | 251° |
| 2026-04-24 01:34 | 21.80598 | -102.08080 | 35801 ft | 420 kts | 250° |
| 2026-04-24 01:35 | 21.78327 | -102.13825 | 35800 ft | 420 kts | 250° |
| 2026-04-24 01:35 | 21.76039 | -102.19608 | 36114 ft | 420 kts | 250° |
| 2026-04-24 01:36 | 21.73738 | -102.25384 | 36153 ft | 420 kts | 250° |
| 2026-04-24 01:36 | 21.71125 | -102.31014 | 36157 ft | 426 kts | 238° |
| 2026-04-24 01:36 | 21.69183 | -102.33446 | 36157 ft | 432 kts | 227° |
| 2026-04-24 01:37 | 21.66857 | -102.35515 | 36155 ft | 436 kts | 223° |
| 2026-04-24 01:37 | 21.62102 | -102.39526 | 36127 ft | 438 kts | 223° |
| 2026-04-24 01:38 | 21.57309 | -102.43576 | 36047 ft | 438 kts | 222° |
| 2026-04-24 01:38 | 21.52516 | -102.47614 | 35967 ft | 438 kts | 222° |
| 2026-04-24 01:38 | 21.50128 | -102.49620 | 35797 ft | 435 kts | 222° |
| 2026-04-24 01:39 | 21.47755 | -102.51612 | 35384 ft | 430 kts | 223° |
| 2026-04-24 01:39 | 21.45408 | -102.53582 | 34947 ft | 427 kts | 223° |
| 2026-04-24 01:39 | 21.43107 | -102.55514 | 34508 ft | 424 kts | 223° |
| 2026-04-24 01:39 | 21.40793 | -102.57456 | 34083 ft | 421 kts | 223° |
| 2026-04-24 01:40 | 21.38495 | -102.59385 | 33650 ft | 418 kts | 223° |
| 2026-04-24 01:40 | 21.36216 | -102.61298 | 33127 ft | 413 kts | 223° |
| 2026-04-24 01:40 | 21.33981 | -102.63174 | 32580 ft | 403 kts | 223° |
| 2026-04-24 01:40 | 21.31797 | -102.65004 | 32013 ft | 394 kts | 223° |
| 2026-04-24 01:41 | 21.29653 | -102.66801 | 31372 ft | 389 kts | 223° |
| 2026-04-24 01:41 | 21.27533 | -102.68581 | 30719 ft | 385 kts | 222° |
| 2026-04-24 01:41 | 21.25436 | -102.70341 | 30092 ft | 382 kts | 222° |
| 2026-04-24 01:41 | 21.23356 | -102.72087 | 29388 ft | 378 kts | 222° |
| 2026-04-24 01:42 | 21.21295 | -102.73816 | 28672 ft | 374 kts | 222° |
| 2026-04-24 01:42 | 21.19283 | -102.75501 | 27975 ft | 370 kts | 222° |
| 2026-04-24 01:42 | 21.17260 | -102.77192 | 27308 ft | 366 kts | 221° |
| 2026-04-24 01:42 | 21.15258 | -102.78854 | 26652 ft | 362 kts | 221° |
| 2026-04-24 01:43 | 21.13142 | -102.80309 | 26009 ft | 362 kts | 207° |
| 2026-04-24 01:43 | 21.10742 | -102.81123 | 25383 ft | 364 kts | 192° |
| 2026-04-24 01:43 | 21.08210 | -102.81216 | 24762 ft | 366 kts | 176° |
| 2026-04-24 01:43 | 21.05696 | -102.80855 | 24127 ft | 364 kts | 175° |
| 2026-04-24 01:44 | 21.03195 | -102.80482 | 23528 ft | 361 kts | 175° |
| 2026-04-24 01:44 | 21.00718 | -102.80112 | 22832 ft | 358 kts | 174° |
| 2026-04-24 01:44 | 20.98294 | -102.79752 | 22173 ft | 355 kts | 174° |
| 2026-04-24 01:44 | 20.95863 | -102.79383 | 21525 ft | 352 kts | 174° |
| 2026-04-24 01:45 | 20.93452 | -102.78997 | 20870 ft | 350 kts | 174° |
| 2026-04-24 01:45 | 20.91057 | -102.78605 | 20255 ft | 347 kts | 174° |
| 2026-04-24 01:45 | 20.88682 | -102.78214 | 19676 ft | 343 kts | 173° |
| 2026-04-24 01:45 | 20.86330 | -102.77828 | 19088 ft | 341 kts | 173° |
| 2026-04-24 01:46 | 20.83989 | -102.77449 | 18485 ft | 340 kts | 173° |
| 2026-04-24 01:46 | 20.81666 | -102.77075 | 17897 ft | 337 kts | 172° |
| 2026-04-24 01:46 | 20.79361 | -102.76705 | 17306 ft | 333 kts | 173° |
| 2026-04-24 01:46 | 20.77080 | -102.76339 | 16692 ft | 330 kts | 173° |
| 2026-04-24 01:47 | 20.74808 | -102.75974 | 16100 ft | 328 kts | 173° |
| 2026-04-24 01:47 | 20.72581 | -102.75581 | 15522 ft | 322 kts | 166° |
| 2026-04-24 01:47 | 20.70551 | -102.74698 | 15025 ft | 318 kts | 149° |
| 2026-04-24 01:47 | 20.68756 | -102.73322 | 14426 ft | 318 kts | 143° |
| 2026-04-24 01:48 | 20.67006 | -102.71906 | 13951 ft | 313 kts | 143° |
| 2026-04-24 01:48 | 20.65277 | -102.70526 | 13399 ft | 310 kts | 145° |
| 2026-04-24 01:48 | 20.63557 | -102.69163 | 12980 ft | 305 kts | 146° |
| 2026-04-24 01:48 | 20.61866 | -102.67822 | 12758 ft | 301 kts | 146° |
| 2026-04-24 01:49 | 20.60198 | -102.66495 | 12575 ft | 299 kts | 146° |
| 2026-04-24 01:49 | 20.58537 | -102.65173 | 12560 ft | 296 kts | 145° |
| 2026-04-24 01:49 | 20.56784 | -102.64055 | 12537 ft | 291 kts | 162° |
| 2026-04-24 01:49 | 20.54860 | -102.63670 | 12405 ft | 273 kts | 184° |
| 2026-04-24 01:50 | 20.53099 | -102.64012 | 12267 ft | 251 kts | 206° |
| 2026-04-24 01:50 | 20.51653 | -102.64893 | 12124 ft | 230 kts | 223° |
| 2026-04-24 01:50 | 20.50603 | -102.66104 | 11740 ft | 218 kts | 240° |
| 2026-04-24 01:50 | 20.49961 | -102.67545 | 11213 ft | 215 kts | 255° |
| 2026-04-24 01:51 | 20.49531 | -102.69062 | 10694 ft | 213 kts | 255° |
| 2026-04-24 01:51 | 20.49090 | -102.70565 | 10173 ft | 213 kts | 254° |
| 2026-04-24 01:51 | 20.48646 | -102.72056 | 9696 ft | 209 kts | 255° |
| 2026-04-24 01:51 | 20.48209 | -102.73525 | 9148 ft | 208 kts | 255° |
| 2026-04-24 01:52 | 20.47773 | -102.74991 | 8641 ft | 205 kts | 255° |
| 2026-04-24 01:52 | 20.47343 | -102.76435 | 8545 ft | 205 kts | 255° |
| 2026-04-24 01:52 | 20.46914 | -102.77875 | 8554 ft | 208 kts | 255° |
| 2026-04-24 01:52 | 20.46478 | -102.79341 | 8556 ft | 207 kts | 255° |
| 2026-04-24 01:53 | 20.46043 | -102.80804 | 8551 ft | 208 kts | 255° |
| 2026-04-24 01:53 | 20.45606 | -102.82277 | 8560 ft | 209 kts | 255° |
| 2026-04-24 01:53 | 20.45097 | -102.83727 | 8539 ft | 210 kts | 245° |
| 2026-04-24 01:53 | 20.44259 | -102.85007 | 8505 ft | 212 kts | 232° |
| 2026-04-24 01:54 | 20.43242 | -102.86155 | 8417 ft | 213 kts | 228° |
| 2026-04-24 01:54 | 20.42114 | -102.87187 | 8368 ft | 215 kts | 221° |
| 2026-04-24 01:54 | 20.40930 | -102.88163 | 8410 ft | 213 kts | 225° |
| 2026-04-24 01:54 | 20.39863 | -102.89243 | 8588 ft | 215 kts | 231° |
| 2026-04-24 01:55 | 20.38966 | -102.90505 | 8509 ft | 212 kts | 241° |
| 2026-04-24 01:55 | 20.38186 | -102.91828 | 8493 ft | 210 kts | 241° |
| 2026-04-24 01:55 | 20.37490 | -102.93161 | 8669 ft | 207 kts | 252° |
| 2026-04-24 01:55 | 20.37069 | -102.94629 | 8736 ft | 207 kts | 265° |
| 2026-04-24 01:56 | 20.37023 | -102.96146 | 8650 ft | 205 kts | 282° |
| 2026-04-24 01:56 | 20.37585 | -102.97515 | 8413 ft | 204 kts | 303° |
| 2026-04-24 01:56 | 20.38411 | -102.98752 | 8326 ft | 205 kts | 297° |
| 2026-04-24 01:56 | 20.38939 | -103.00117 | 8271 ft | 189 kts | 289° |
| 2026-04-24 01:57 | 20.39381 | -103.01349 | 8130 ft | 168 kts | 294° |
| 2026-04-24 01:57 | 20.39905 | -103.02395 | 8113 ft | 157 kts | 297° |
| 2026-04-24 01:57 | 20.40438 | -103.03401 | 8121 ft | 155 kts | 297° |
| 2026-04-24 01:57 | 20.40913 | -103.04421 | 8120 ft | 156 kts | 294° |
| 2026-04-24 01:58 | 20.41362 | -103.05471 | 8058 ft | 156 kts | 293° |
| 2026-04-24 01:58 | 20.41803 | -103.06516 | 8077 ft | 155 kts | 293° |
| 2026-04-24 01:58 | 20.42247 | -103.07576 | 8009 ft | 158 kts | 293° |
| 2026-04-24 01:58 | 20.42679 | -103.08649 | 7766 ft | 156 kts | 290° |
| 2026-04-24 01:59 | 20.43110 | -103.09704 | 7579 ft | 155 kts | 295° |
| 2026-04-24 01:59 | 20.43599 | -103.10729 | 7369 ft | 156 kts | 296° |
| 2026-04-24 01:59 | 20.44054 | -103.11773 | 7117 ft | 155 kts | 291° |
| 2026-04-24 01:59 | 20.44465 | -103.12832 | 6996 ft | 154 kts | 294° |
| 2026-04-24 02:00 | 20.44906 | -103.13861 | 6847 ft | 152 kts | 294° |
| 2026-04-24 02:00 | 20.45320 | -103.14875 | 6934 ft | 151 kts | 295° |
| 2026-04-24 02:00 | 20.45750 | -103.15903 | 6991 ft | 152 kts | 295° |
| 2026-04-24 02:00 | 20.46191 | -103.16928 | 7067 ft | 153 kts | 294° |
| 2026-04-24 02:01 | 20.46622 | -103.17974 | 6998 ft | 154 kts | 293° |
| 2026-04-24 02:01 | 20.47054 | -103.19017 | 6783 ft | 153 kts | 293° |
| 2026-04-24 02:01 | 20.47473 | -103.20055 | 6580 ft | 151 kts | 294° |
| 2026-04-24 02:01 | 20.47913 | -103.21073 | 6443 ft | 151 kts | 294° |
| 2026-04-24 02:02 | 20.48347 | -103.22090 | 6198 ft | 149 kts | 296° |
| 2026-04-24 02:02 | 20.48779 | -103.23082 | 6065 ft | 148 kts | 295° |
| 2026-04-24 02:02 | 20.49226 | -103.24086 | 6020 ft | 152 kts | 293° |
| 2026-04-24 02:02 | 20.49648 | -103.25115 | 5967 ft | 154 kts | 294° |
| 2026-04-24 02:03 | 20.50547 | -103.27237 | 5600 ft | 153 kts | 293° |
| 2026-04-24 02:03 | 20.50976 | -103.28261 | 5394 ft | 149 kts | 293° |
| 2026-04-24 02:03 | 20.51403 | -103.29266 | 5104 ft | 152 kts | 294° |
| 2026-04-24 02:04 | 20.51802 | -103.30195 | 5021 ft | 100 kts | 292° |
| 2026-04-24 02:04 | 20.51939 | -103.30540 | 5021 ft | 33 kts | 295° |
| 2026-04-24 02:04 | 20.52039 | -103.30743 | 5022 ft | 29 kts | 306° |
| 2026-04-24 02:04 | 20.52139 | -103.30837 | 5019 ft | 0 kts | 323° |
| 2026-04-24 02:05 | 20.52146 | -103.30843 | 5020 ft | 5 kts | 323° |
| 2026-04-24 02:05 | 20.52205 | -103.30889 | 5022 ft | 16 kts | 323° |
| 2026-04-24 02:05 | 20.52259 | -103.30931 | 5022 ft | 3 kts | 323° |
| 2026-04-24 02:06 | 20.52286 | -103.30952 | 5022 ft | 7 kts | 324° |
| 2026-04-24 02:06 | 20.52331 | -103.30985 | 5024 ft | 9 kts | 328° |
| 2026-04-24 02:06 | 20.52394 | -103.30979 | 5024 ft | 12 kts | 43° |
| 2026-04-24 02:06 | 20.52443 | -103.30886 | 5018 ft | 18 kts | 61° |
| 2026-04-24 02:07 | 20.52491 | -103.30752 | 5018 ft | 21 kts | 70° |
| 2026-04-24 02:07 | 20.52522 | -103.30664 | 5020 ft | 6 kts | 69° |
| 2026-04-24 02:07 | 20.52535 | -103.30619 | 5020 ft | 7 kts | 84° |
| 2026-04-24 02:07 | 20.52507 | -103.30571 | 5018 ft | 9 kts | 141° |
| 2026-04-24 02:08 | 20.52454 | -103.30531 | 5019 ft | 10 kts | 137° |
| 2026-04-24 02:08 | 20.52439 | -103.30459 | 5020 ft | 11 kts | 87° |
| 2026-04-24 02:08 | 20.52444 | -103.30393 | 5020 ft | 7 kts | 78° |
| 2026-04-24 02:08 | 20.52449 | -103.30375 | 5018 ft | 0 kts | 74° |
| 2026-04-24 02:09 | 20.52449 | -103.30372 | 5018 ft | 1 kts | 73° |
| 2026-04-24 02:09 | 20.52460 | -103.30360 | 5015 ft | 3 kts | 34° |
| 2026-04-24 02:09 | 20.52483 | -103.30350 | 5017 ft | 4 kts | 22° |
| 2026-04-24 02:09 | 20.52499 | -103.30344 | 5019 ft | 1 kts | 19° |
| 2026-04-24 02:10 | 20.52506 | -103.30342 | 5019 ft | 1 kts | 19° |